Time;durP1;ratioP1;P1;durP2;ratioP2;P2;SDS_P1;SDS_P2;PMS_P1;PMS_P2;Temp;Humidity;BMP_temperature;BMP_pressure;BME280_temperature;BME280_humidity;BME280_pressure;Samples;Min_cycle;Max_cycle;Signal;HPM_P1;HPM_P2
2022/12/16 00:00:19;;;;;;;;;65.75;50.50;;;;;-0.36;100.00;100749.44;5024855;28;45546;-75
2022/12/16 00:02:45;;;;;;;;;53.50;42.75;;;;;-0.37;100.00;100758.44;5025108;28;46073;-77
2022/12/16 00:05:10;;;;;;;;;56.50;43.75;;;;;-0.36;100.00;100763.66;5026689;28;45486;-75
2022/12/16 00:07:35;;;;;;;;;54.50;46.25;;;;;-0.41;100.00;100755.03;5022833;28;46905;-76
2022/12/16 00:10:01;;;;;;;;;54.00;42.75;;;;;-0.47;100.00;100761.56;5023410;28;45535;-76
2022/12/16 00:12:26;;;;;;;;;60.00;42.75;;;;;-0.43;100.00;100767.59;5020834;28;45501;-76
2022/12/16 00:14:52;;;;;;;;;58.25;47.50;;;;;-0.44;100.00;100771.22;5026926;28;45349;-76
2022/12/16 00:17:17;;;;;;;;;60.75;46.50;;;;;-0.42;100.00;100780.84;5036284;28;47581;-76
2022/12/16 00:19:43;;;;;;;;;50.00;44.50;;;;;-0.42;100.00;100790.66;5026523;28;45449;-77
2022/12/16 00:22:09;;;;;;;;;56.50;45.25;;;;;-0.57;100.00;100764.75;5035979;28;45452;-77
2022/12/16 00:24:34;;;;;;;;;53.25;46.25;;;;;-0.49;100.00;100783.91;5025795;28;45356;-76
2022/12/16 00:27:00;;;;;;;;;62.00;49.75;;;;;-0.46;100.00;100789.13;5020627;28;45559;-76
2022/12/16 00:29:25;;;;;;;;;57.00;48.00;;;;;-0.52;100.00;100781.41;5026607;28;46279;-76
2022/12/16 00:31:51;;;;;;;;;60.00;46.50;;;;;-0.54;100.00;100785.97;5021863;28;45701;-76
2022/12/16 00:34:16;;;;;;;;;46.00;43.50;;;;;-0.52;100.00;100789.44;5028509;28;45564;-76
2022/12/16 00:36:42;;;;;;;;;67.25;48.00;;;;;-0.52;100.00;100789.44;5038528;28;47301;-76
2022/12/16 00:39:09;;;;;;;;;59.75;46.00;;;;;-0.56;100.00;100793.16;5027936;28;45420;-76
2022/12/16 00:41:34;;;;;;;;;56.25;45.50;;;;;-0.59;100.00;100788.00;5041437;28;45555;-76
2022/12/16 00:43:59;;;;;;;;;54.50;42.00;;;;;-0.57;100.00;100794.97;5037084;28;45394;-77
2022/12/16 00:46:25;;;;;;;;;50.75;44.25;;;;;-0.61;100.00;100787.22;5026398;28;45384;-76
2022/12/16 00:48:50;;;;;;;;;60.75;44.50;;;;;-0.64;100.00;100793.56;5027652;28;45343;-76
2022/12/16 00:51:15;;;;;;;;;65.00;47.50;;;;;-0.70;100.00;100793.88;5030401;28;45378;-76
2022/12/16 00:53:41;;;;;;;;;50.75;46.00;;;;;-0.68;100.00;100794.66;5027083;28;45434;-76
2022/12/16 00:56:08;;;;;;;;;48.25;41.25;;;;;-0.72;100.00;100795.75;5027013;28;45462;-76
2022/12/16 00:58:34;;;;;;;;;56.75;44.00;;;;;-0.76;100.00;100801.31;5026616;28;45504;-75
2022/12/16 01:01:01;;;;;;;;;48.50;45.00;;;;;-0.80;100.00;100804.13;5027355;28;45192;-76
2022/12/16 01:03:26;;;;;;;;;69.00;49.25;;;;;-0.82;100.00;100807.81;5027891;28;45411;-77
2022/12/16 01:05:51;;;;;;;;;52.50;42.50;;;;;-0.82;100.00;100811.34;5027204;28;47869;-76
2022/12/16 01:08:17;;;;;;;;;54.00;46.50;;;;;-0.81;100.00;100813.09;5025200;28;45502;-76
2022/12/16 01:10:49;;;;;;;;;60.00;43.50;;;;;-0.81;100.00;100804.22;5029069;28;45800;-75
2022/12/16 01:13:14;;;;;;;;;44.75;42.75;;;;;-0.82;100.00;100814.03;5028291;28;45434;-76
2022/12/16 01:15:40;;;;;;;;;56.00;45.50;;;;;-0.80;100.00;100820.13;5040251;28;47249;-75
2022/12/16 01:18:05;;;;;;;;;52.25;43.50;;;;;-0.77;100.00;100826.25;5032521;28;45577;-75
2022/12/16 01:20:32;;;;;;;;;61.75;48.00;;;;;-0.77;100.00;100831.59;5026177;28;46189;-75
2022/12/16 01:22:57;;;;;;;;;51.75;43.50;;;;;-0.79;100.00;100827.19;5025126;28;45277;-76
2022/12/16 01:25:22;;;;;;;;;53.00;45.25;;;;;-0.81;100.00;100831.75;5024983;28;45415;-76
2022/12/16 01:27:49;;;;;;;;;57.75;46.25;;;;;-0.78;100.00;100836.06;5022990;28;45375;-77
2022/12/16 01:30:14;;;;;;;;;58.00;46.25;;;;;-0.77;100.00;100836.94;5027584;28;45418;-76
2022/12/16 01:32:39;;;;;;;;;52.00;43.00;;;;;-0.76;100.00;100839.53;5023563;28;45374;-76
2022/12/16 01:35:05;;;;;;;;;56.25;43.25;;;;;-0.73;100.00;100847.34;5032813;28;45450;-77
2022/12/16 01:37:31;;;;;;;;;60.75;46.50;;;;;-0.73;100.00;100849.19;5022722;28;45396;-76
2022/12/16 01:39:56;;;;;;;;;65.75;48.00;;;;;-0.74;100.00;100858.13;5046648;28;45358;-77
2022/12/16 01:42:21;;;;;;;;;51.50;42.50;;;;;-0.70;100.00;100868.56;5025329;28;45515;-76
2022/12/16 01:44:49;;;;;;;;;65.00;42.25;;;;;-0.73;100.00;100870.53;5029331;28;47808;-76
2022/12/16 01:47:17;;;;;;;;;48.50;42.50;;;;;-0.71;100.00;100871.31;5024567;28;45299;-77
2022/12/16 01:49:51;;;;;;;;;58.00;48.00;;;;;-0.81;100.00;100869.09;5028313;28;45514;-76
2022/12/16 01:52:22;;;;;;;;;58.75;44.75;;;;;-0.79;100.00;100875.19;5030503;28;45604;-77
2022/12/16 01:54:59;;;;;;;;;58.00;43.50;;;;;-0.80;100.00;100885.94;5036456;28;47704;-77
2022/12/16 01:57:39;;;;;;;;;68.00;51.25;;;;;-0.81;100.00;100878.91;5025428;28;45424;-77
2022/12/16 02:00:06;;;;;;;;;47.25;43.25;;;;;-0.87;100.00;100884.50;5033450;28;45486;-76
2022/12/16 02:02:32;;;;;;;;;54.75;44.00;;;;;-0.87;100.00;100884.50;5037942;28;45747;-76
2022/12/16 02:08:13;;;;;;;;;60.25;46.25;;;;;-0.85;100.00;100888.84;5032749;28;45578;-77
2022/12/16 02:10:41;;;;;;;;;60.50;46.75;;;;;-0.84;100.00;100895.03;5020231;28;45368;-76
2022/12/16 02:13:38;;;;;;;;;55.00;41.00;;;;;-0.87;100.00;100900.50;5028282;28;45595;-76
2022/12/16 02:16:38;;;;;;;;;62.75;46.50;;;;;-0.91;100.00;100896.28;5024685;28;45266;-76
2022/12/16 02:19:09;;;;;;;;;51.75;47.25;;;;;-0.91;100.00;100909.59;5028281;28;45381;-76
2022/12/16 02:21:44;;;;;;;;;49.25;45.75;;;;;-0.92;100.00;100905.19;5027309;28;45524;-76
2022/12/16 02:24:19;;;;;;;;;59.50;45.75;;;;;-0.92;100.00;100906.06;5025695;28;45481;-76
2022/12/16 02:26:44;;;;;;;;;46.00;43.25;;;;;-0.92;100.00;100899.88;5027550;28;46578;-76
2022/12/16 02:29:31;;;;;;;;;47.75;43.25;;;;;-0.92;100.00;100897.19;5023651;28;45425;-76
2022/12/16 02:32:09;;;;;;;;;49.50;44.50;;;;;-0.91;100.00;100899.81;5029779;28;45411;-77
2022/12/16 02:34:53;;;;;;;;;53.50;42.25;;;;;-0.94;100.00;100899.94;5035968;28;45329;-75
2022/12/16 02:37:39;;;;;;;;;58.00;45.00;;;;;-0.97;100.00;100900.09;5022176;28;45468;-75
2022/12/16 02:40:21;;;;;;;;;53.75;45.50;;;;;-1.05;100.00;100896.91;5028987;28;45645;-76
2022/12/16 02:42:53;;;;;;;;;54.00;47.50;;;;;-1.05;100.00;100899.59;5038278;28;45431;-75
2022/12/16 02:45:24;;;;;;;;;61.25;48.50;;;;;-1.05;100.00;100902.25;5035385;28;45436;-75
2022/12/16 02:47:50;;;;;;;;;61.25;49.50;;;;;-1.05;100.00;100907.59;5024167;28;48549;-75
2022/12/16 02:50:21;;;;;;;;;65.25;48.25;;;;;-1.03;100.00;100916.38;5033297;28;45426;-75
2022/12/16 02:52:47;;;;;;;;;52.50;44.25;;;;;-1.05;100.00;100907.59;5034631;28;45530;-75
2022/12/16 02:55:14;;;;;;;;;58.50;48.25;;;;;-1.03;100.00;100913.72;5032744;28;45631;-76
2022/12/16 02:58:21;;;;;;;;;58.25;49.50;;;;;-1.05;100.00;100906.72;5030632;28;45650;-76
2022/12/16 03:01:09;;;;;;;;;69.00;51.00;;;;;-1.04;100.00;100920.00;5002824;28;46151;-76
2022/12/16 03:03:53;;;;;;;;;61.25;48.00;;;;;-1.07;100.00;100925.44;5034453;28;46043;-76
2022/12/16 03:06:21;;;;;;;;;60.75;47.75;;;;;-1.15;100.00;100911.59;5031312;28;45586;-76
2022/12/16 03:08:52;;;;;;;;;54.50;44.50;;;;;-1.13;100.00;100915.06;5033130;28;46559;-76
2022/12/16 03:11:18;;;;;;;;;49.25;43.25;;;;;-1.17;100.00;100909.00;5023081;28;45308;-76
2022/12/16 03:13:48;;;;;;;;;64.00;47.00;;;;;-1.11;100.00;100925.66;5026069;28;45339;-76
2022/12/16 03:16:17;;;;;;;;;55.25;45.25;;;;;-1.10;100.00;100925.59;5028411;28;45564;-76
2022/12/16 03:18:49;;;;;;;;;50.75;44.00;;;;;-1.11;100.00;100920.34;5035255;28;46215;-76
2022/12/16 03:21:15;;;;;;;;;53.75;42.75;;;;;-1.17;100.00;100913.50;5039317;28;45705;-76
2022/12/16 03:23:53;;;;;;;;;53.00;42.25;;;;;-1.15;100.00;100918.72;5029161;28;45356;-75
2022/12/16 03:26:28;;;;;;;;;53.00;45.25;;;;;-1.18;100.00;100914.44;5037594;28;45304;-75
2022/12/16 03:29:08;;;;;;;;;57.75;47.50;;;;;-1.15;100.00;100922.25;5026897;28;45508;-76
2022/12/16 03:31:34;;;;;;;;;53.75;46.00;;;;;-1.15;100.00;100927.59;5035176;28;45410;-75
2022/12/16 03:34:11;;;;;;;;;51.75;44.75;;;;;-1.25;100.00;100916.50;5027068;28;45236;-76
2022/12/16 03:36:40;;;;;;;;;49.50;43.25;;;;;-1.27;100.00;100928.16;5023743;28;45539;-75
2022/12/16 03:39:07;;;;;;;;;56.75;47.00;;;;;-1.23;100.00;100929.75;5025694;28;47092;-75
2022/12/16 03:41:34;;;;;;;;;65.25;46.75;;;;;-1.24;100.00;100939.53;5020349;28;45419;-75
2022/12/16 03:44:00;;;;;;;;;56.00;47.00;;;;;-1.27;100.00;100944.16;5042255;28;45466;-75
2022/12/16 03:46:26;;;;;;;;;64.00;49.25;;;;;-1.24;100.00;100946.66;5022282;28;45536;-75
2022/12/16 03:48:51;;;;;;;;;66.75;52.25;;;;;-1.26;100.00;100948.56;5028944;28;45364;-75
2022/12/16 03:51:18;;;;;;;;;57.75;48.50;;;;;-1.26;100.00;100951.22;5023984;28;45417;-76
2022/12/16 03:53:44;;;;;;;;;59.75;50.50;;;;;-1.29;100.00;100948.69;5029242;28;46430;-75
2022/12/16 03:56:10;;;;;;;;;57.50;47.25;;;;;-1.31;100.00;100950.53;5032600;28;45557;-76
2022/12/16 03:58:39;;;;;;;;;44.50;41.00;;;;;-1.28;100.00;100958.41;5031832;28;45552;-76
2022/12/16 04:01:06;;;;;;;;;66.00;51.50;;;;;-1.28;100.00;100955.75;5037221;28;45454;-76
2022/12/16 04:03:31;;;;;;;;;63.75;50.75;;;;;-1.30;100.00;100954.94;5026332;28;45588;-76
2022/12/16 04:05:56;;;;;;;;;68.50;49.00;;;;;-1.35;100.00;100947.16;5037537;28;45525;-76
2022/12/16 04:08:22;;;;;;;;;63.50;49.25;;;;;-1.33;100.00;100955.09;5025589;28;45580;-76
2022/12/16 04:24:32;;;;;;;;;61.50;46.75;;;;;-1.29;100.00;100976.19;5036613;28;45307;-76
2022/12/16 04:32:26;;;;;;;;;68.75;55.50;;;;;-1.23;100.00;100977.72;5024418;28;45296;-76
2022/12/16 04:34:52;;;;;;;;;73.50;56.25;;;;;-1.24;100.00;100976.00;5039181;28;45473;-75
